Last 7 Days

Suisun Valley (SSV)

Hourly Data | America/Los_Angeles
as of 12/9/18 1:18 PM PST
Date Time Temp (°F) RH (%) Dew Pt (°F) Wind Spd (mph) Wind Dir (°) Wind Gust (mph) Wind Gst Dir (°) Latest Rain (In) Solar Rad Tot Hr (Cal/cm2) Daily Rain (In) Daily Min Temp (°F) Daily Max Temp (°F) Day
12/9/18 1200 48.7 93 46.9 3.4 E | 81 9.3 E | 82 0.00 6 0.00 38.8 49.6 12/9/18
12/9/18 1100 46.5 94 44.9 0.4 NW | 309 2.2 NW | 326 0.00 4 0.00 38.8 47.2 12/9/18
12/9/18 1000 45.0 95 43.6 1.4 N | 354 4.9 N | 5 0.00 3 0.00 38.8 46.0 12/9/18
12/9/18 0900 43.7 96 42.6 2.2 NNW | 336 4.6 WNW | 303 0.00 0 0.00 38.8 44.0 12/9/18
12/9/18 0800 43.4 96 42.4 1.4 N | 358 3.3 NW | 318 0.00 0 0.00 38.8 43.7 12/9/18
12/9/18 0700 42.5 97 41.6 0.8 N | 1 2.4 NNW | 339 0.00 0 0.00 38.8 43.0 12/9/18
12/9/18 0600 41.7 96 40.8 0.9 N | 359 2.9 NNW | 346 0.00 0 0.00 38.8 42.3 12/9/18
12/9/18 0500 40.5 96 39.6 1.1 N | 358 3.4 N | 3 0.00 0 0.00 38.8 41.7 12/9/18
12/9/18 0400 41.0 96 40.0 0.8 WNW | 291 3.3 N | 9 0.00 0 0.00 38.8 41.7 12/9/18
12/9/18 0300 39.4 95 38.2 0.9 SSW | 195 3.4 S | 180 0.00 0 0.00 38.8 41.5 12/9/18
12/9/18 0200 40.3 94 38.9 1.7 W | 280 5.4 SE | 141 0.00 0 0.00 39.3 41.5 12/9/18
12/9/18 0100 41.3 95 39.9 2.6 NW | 326 4.9 W | 279 0.00 0 0.00 41.0 41.5 12/9/18
12/9/18 0000 41.2 95 39.8 2.3 NW | 323 4.1 NW | 318 0.00 0 0.00 35.8 61.8 12/8/18
12/8/18 2300 41.8 95 40.4 2.0 NW | 322 4.4 NNW | 333 0.00 0 0.00 35.8 61.8 12/8/18
12/8/18 2200 41.9 94 40.4 0.9 NNW | 327 4.3 NW | 306 0.00 0 0.00 35.8 61.8 12/8/18
12/8/18 2100 42.3 92 40.0 0.1 W | 269 1.4 W | 266 0.00 0 0.00 35.8 61.8 12/8/18
12/8/18 2000 46.4 84 41.9 0.1 NW | 323 1.7 NW | 324 0.00 0 0.00 35.8 61.8 12/8/18
12/8/18 1900 52.2 72 43.4 1.3 SSW | 196 2.7 S | 178 0.00 0 0.00 35.8 61.8 12/8/18
12/8/18 1800 57.8 58 43.2 3.3 SE | 129 6.8 ESE | 120 0.00 4 0.00 35.8 61.8 12/8/18
12/8/18 1700 61.2 51 43.1 3.2 ESE | 107 6.8 E | 94 0.00 18 0.00 35.8 61.8 12/8/18
12/8/18 1600 61.0 52 43.2 5.3 E | 97 10.0 SE | 125 0.00 29 0.00 35.8 61.4 12/8/18
12/8/18 1500 60.8 53 43.4 6.0 E | 88 9.6 SE | 139 0.00 37 0.00 35.8 61.1 12/8/18
12/8/18 1400 60.3 54 43.5 5.1 E | 89 10.3 ENE | 66 0.00 42 0.00 35.8 60.7 12/8/18
12/8/18 1300 56.8 64 44.7 1.6 SSW | 210 4.4 SW | 224 0.00 41 0.00 35.8 59.7 12/8/18
12/8/18 1200 51.6 77 44.7 1.1 SSE | 160 4.1 SSE | 168 0.00 36 0.00 35.8 54.9 12/8/18
12/8/18 1100 46.0 92 43.7 1.1 SE | 138 3.1 SSE | 155 0.00 27 0.00 35.8 48.4 12/8/18
12/8/18 1000 42.8 96 41.7 0.4 ESE | 114 2.7 ESE | 103 0.00 14 0.00 35.8 44.1 12/8/18
12/8/18 0900 39.1 96 38.1 0.1 WNW | 302 1.4 WNW | 287 0.00 2 0.00 35.8 42.2 12/8/18
12/8/18 0800 37.0 96 35.9 0.0 WNW | 284 1.9 WNW | 292 0.00 0 0.00 35.8 42.2 12/8/18
12/8/18 0700 38.6 95 37.3 0.3 NNW | 332 2.1 NW | 309 0.00 0 0.00 37.5 42.2 12/8/18
12/8/18 0600 38.9 95 37.6 1.4 NW | 318 3.6 NNW | 338 0.00 0 0.00 38.2 42.2 12/8/18
12/8/18 0500 39.3 95 37.9 0.7 NW | 320 3.3 NNW | 338 0.00 0 0.00 38.5 42.2 12/8/18
12/8/18 0400 40.0 94 38.5 2.0 NW | 314 4.3 NNW | 328 0.00 0 0.00 39.6 42.2 12/8/18
12/8/18 0300 40.4 94 38.8 2.2 NW | 316 4.3 NW | 320 0.00 0 0.00 40.0 42.2 12/8/18
12/8/18 0200 41.3 94 39.6 2.5 NW | 317 5.1 NNW | 340 0.00 0 0.00 40.8 42.2 12/8/18
12/8/18 0100 41.9 93 40.2 2.7 NW | 314 5.8 NW | 321 0.00 0 0.00 41.6 42.2 12/8/18
12/8/18 0000 42.6 93 40.7 2.8 NW | 322 4.4 N | 350 0.00 0 0.00 38.2 63.2 12/7/18
12/7/18 2300 43.1 93 41.2 2.5 NW | 323 4.9 NNW | 328 0.00 0 0.00 38.2 63.2 12/7/18
12/7/18 2200 43.9 92 41.7 2.0 NW | 323 4.3 NNW | 334 0.00 0 0.00 38.2 63.2 12/7/18
12/7/18 2100 45.2 90 42.5 2.2 NW | 325 4.6 NW | 313 0.00 0 0.00 38.2 63.2 12/7/18
12/7/18 2000 46.8 88 43.6 1.5 NW | 323 3.4 NW | 322 0.00 0 0.00 38.2 63.2 12/7/18
12/7/18 1900 50.0 81 44.1 0.4 NW | 311 2.7 NW | 304 0.00 0 0.00 38.2 63.2 12/7/18
12/7/18 1800 57.2 60 43.2 1.7 SW | 216 3.3 S | 182 0.00 4 0.00 38.2 63.2 12/7/18
12/7/18 1700 61.8 48 41.9 1.8 SSE | 151 4.4 SE | 131 0.00 18 0.00 38.2 63.2 12/7/18
12/7/18 1600 62.6 45 40.7 2.8 SSE | 164 6.3 SSE | 160 0.00 30 0.00 38.2 62.8 12/7/18
12/7/18 1500 61.8 48 42.2 3.8 SSE | 153 8.1 SE | 138 0.00 38 0.00 38.2 62.8 12/7/18
12/7/18 1400 59.0 57 43.7 2.8 S | 188 6.3 SSW | 202 0.00 42 0.00 38.2 60.6 12/7/18
12/7/18 1300 56.9 62 44.0 1.5 SSE | 154 4.4 S | 191 0.00 43 0.00 38.2 58.7 12/7/18
12/7/18 1200 50.9 76 43.6 1.8 SSE | 150 4.1 SE | 142 0.00 31 0.00 38.2 53.7 12/7/18
12/7/18 1100 47.4 82 42.3 1.7 SSE | 149 4.9 SE | 137 0.00 25 0.00 38.2 49.0 12/7/18
12/7/18 1000 43.2 93 41.2 0.4 SSW | 198 2.9 SSE | 153 0.00 9 0.00 38.2 44.9 12/7/18
12/7/18 0900 39.2 94 37.5 0.2 N | 353 2.1 WNW | 293 0.00 4 0.00 38.2 42.9 12/7/18
12/7/18 0800 40.2 93 38.3 0.7 WNW | 298 2.7 NW | 321 0.00 0 0.00 39.3 42.9 12/7/18
12/7/18 0700 40.8 93 39.0 2.1 NW | 314 4.1 WNW | 298 0.00 0 0.00 39.9 42.9 12/7/18
12/7/18 0600 40.3 94 38.8 1.8 NW | 314 4.4 WNW | 282 0.00 0 0.00 39.9 42.9 12/7/18
12/7/18 0500 40.3 94 38.7 2.4 NW | 314 4.4 NNW | 327 0.00 0 0.00 40.1 42.9 12/7/18
12/7/18 0400 40.9 93 39.2 2.3 NW | 320 4.3 NNW | 327 0.00 0 0.00 40.4 42.9 12/7/18
12/7/18 0300 41.9 93 40.0 1.7 NW | 321 3.6 NW | 308 0.00 0 0.00 41.3 42.9 12/7/18
12/7/18 0200 42.4 93 40.6 1.8 NW | 319 4.4 WNW | 301 0.00 0 0.00 41.9 42.9 12/7/18
12/7/18 0100 42.5 93 40.6 1.6 NW | 320 3.9 NW | 308 0.00 0 0.00 42.0 42.9 12/7/18
12/7/18 0000 43.2 92 41.0 1.4 NW | 321 2.9 NW | 326 0.00 0 0.00 42.7 66.3 12/6/18
12/6/18 2300 44.3 90 41.6 1.4 NW | 320 3.1 NW | 312 0.00 0 0.00 42.7 66.3 12/6/18
12/6/18 2200 45.6 89 42.6 2.2 NNW | 335 4.6 NNW | 334 0.00 0 0.00 42.7 66.3 12/6/18
12/6/18 2100 46.5 87 42.8 1.3 NW | 323 4.3 NNW | 331 0.00 0 0.00 42.7 66.3 12/6/18
12/6/18 2000 48.8 82 43.5 0.6 WNW | 301 3.1 NNW | 332 0.00 0 0.00 42.7 66.3 12/6/18
12/6/18 1900 52.4 71 43.3 0.4 W | 265 2.2 SW | 218 0.00 0 0.00 42.7 66.3 12/6/18
12/6/18 1800 59.7 51 41.4 0.8 SSW | 200 3.3 SSE | 160 0.00 4 0.00 42.7 66.3 12/6/18
12/6/18 1700 64.0 41 39.6 1.9 SE | 131 6.3 SE | 128 0.00 18 0.00 42.7 66.3 12/6/18
12/6/18 1600 65.6 40 40.6 2.6 S | 171 6.4 SE | 141 0.00 29 0.00 42.7 66.3 12/6/18
12/6/18 1500 65.0 41 40.5 1.5 S | 174 8.1 ENE | 72 0.00 38 0.00 42.7 65.7 12/6/18
12/6/18 1400 63.7 43 40.6 2.5 SE | 145 5.6 SSE | 156 0.00 42 0.00 42.7 64.6 12/6/18
12/6/18 1300 61.5 49 42.1 2.2 SE | 137 6.1 SSE | 150 0.00 41 0.00 42.7 62.9 12/6/18
12/6/18 1200 57.6 58 43.1 3.1 SSE | 160 6.1 SSE | 154 0.00 36 0.00 42.7 59.9 12/6/18
12/6/18 1100 54.2 66 43.0 2.1 S | 175 6.9 S | 173 0.00 27 0.00 42.7 55.8 12/6/18
12/6/18 1000 47.7 87 43.9 0.8 S | 188 3.3 S | 170 0.00 15 0.00 42.7 51.6 12/6/18
12/6/18 0900 43.2 94 41.5 0.4 NNW | 348 2.2 N | 353 0.00 2 0.00 42.7 47.8 12/6/18
12/6/18 0800 44.2 93 42.3 0.1 W | 277 1.7 W | 274 0.00 0 0.00 43.4 47.8 12/6/18
12/6/18 0700 44.2 92 42.2 0.6 NW | 318 2.7 NW | 321 0.00 0 0.00 43.8 47.8 12/6/18
12/6/18 0600 45.0 93 43.1 0.4 NNW | 331 2.1 NNW | 337 0.00 0 0.00 43.8 47.8 12/6/18
12/6/18 0500 44.3 93 42.4 0.1 NNW | 343 1.4 NW | 326 0.00 0 0.00 43.8 47.8 12/6/18
12/6/18 0400 45.1 90 42.3 0.2 NW | 305 1.6 WNW | 300 0.00 0 0.00 43.8 47.8 12/6/18
12/6/18 0300 47.3 86 43.5 0.7 SSE | 164 2.7 SSE | 157 0.00 0 0.00 43.8 47.8 12/6/18
12/6/18 0200 46.4 90 43.7 0.7 S | 184 3.1 SSE | 163 0.00 0 0.00 43.8 47.2 12/6/18
12/6/18 0100 44.9 92 42.9 0.7 SW | 224 4.9 SW | 232 0.00 0 0.00 43.8 45.6 12/6/18
12/6/18 0000 44.2 93 42.4 0.1 W | 281 1.9 NNE | 29 0.00 0 0.20 42.3 57.3 12/5/18
12/5/18 2300 43.6 93 41.6 0.2 W | 277 2.1 W | 267 0.00 0 0.20 42.3 57.3 12/5/18
12/5/18 2200 45.2 90 42.5 0.2 WSW | 247 2.7 W | 265 0.00 0 0.20 44.3 57.3 12/5/18
12/5/18 2100 47.2 88 43.6 0.7 NW | 315 3.9 N | 353 0.00 0 0.20 45.5 57.3 12/5/18
12/5/18 2000 47.8 87 44.1 0.7 WSW | 241 4.8 N | 2 0.00 0 0.20 46.9 57.3 12/5/18
12/5/18 1900 50.7 78 44.2 0.5 NNE | 12 2.4 ENE | 59 0.00 0 0.20 48.1 57.3 12/5/18
12/5/18 1800 54.3 71 45.2 2.8 N | 358 6.4 N | 9 0.00 2 0.20 48.1 57.3 12/5/18
12/5/18 1700 55.6 69 45.6 3.0 N | 358 6.1 N | 11 0.00 6 0.20 48.1 57.3 12/5/18
12/5/18 1600 55.8 68 45.3 4.9 N | 10 9.0 NE | 44 0.00 12 0.20 48.1 57.3 12/5/18
12/5/18 1500 56.2 64 44.0 6.8 NNE | 32 11.3 NE | 45 0.00 16 0.20 48.1 57.3 12/5/18
12/5/18 1400 56.8 64 45.0 5.4 NNE | 26 11.1 NE | 42 0.00 24 0.20 48.1 57.3 12/5/18
12/5/18 1300 54.3 75 46.7 4.7 N | 7 9.8 NNE | 28 0.00 21 0.20 48.1 56.1 12/5/18
12/5/18 1200 53.0 78 46.2 4.6 N | 358 11.3 NNW | 346 0.00 12 0.20 48.1 53.5 12/5/18
12/5/18 1100 52.5 76 45.3 5.2 N | 359 10.8 N | 11 0.00 7 0.20 48.1 53.0 12/5/18
12/5/18 1000 51.5 78 44.9 5.2 N | 4 13.8 N | 5 0.00 5 0.20 48.1 53.0 12/5/18
12/5/18 0900 50.9 79 44.6 5.5 N | 8 11.5 NNW | 327 0.01 1 0.20 48.1 53.0 12/5/18
12/5/18 0800 52.0 72 43.4 6.6 NNE | 21 15.2 NNE | 26 0.00 0 0.19 48.1 53.0 12/5/18
12/5/18 0700 50.9 78 44.2 8.3 N | 10 16.7 N | 1 0.00 0 0.19 48.1 53.0 12/5/18
12/5/18 0600 49.0 88 45.6 3.6 N | 8 10.3 WNW | 291 0.02 0 0.19 48.1 53.0 12/5/18
12/5/18 0500 48.3 91 45.8 3.5 NNW | 348 8.0 NNW | 332 0.03 0 0.17 48.1 53.0 12/5/18
12/5/18 0400 48.8 88 45.6 3.7 N | 3 8.4 ENE | 68 0.09 0 0.14 48.2 53.0 12/5/18
12/5/18 0300 51.6 71 42.4 4.9 E | 85 11.3 NE | 56 0.05 0 0.05 49.4 53.0 12/5/18
12/5/18 0200 52.3 58 37.7 4.5 E | 93 10.3 E | 96 0.00 0 0.00 51.2 53.0 12/5/18
12/5/18 0100 51.8 57 37.2 2.5 SSE | 147 7.4 S | 189 0.00 0 0.00 51.2 52.7 12/5/18
12/5/18 0000 51.5 60 37.8 1.8 W | 272 4.6 NE | 46 0.00 0 0.00 48.6 56.1 12/4/18
12/4/18 2300 52.1 56 36.8 4.1 N | 11 8.4 N | 351 0.00 0 0.00 48.6 56.1 12/4/18
12/4/18 2200 49.5 70 40.1 1.1 NW | 322 4.1 NNW | 347 0.00 0 0.00 48.6 56.1 12/4/18
12/4/18 2100 49.6 71 40.5 1.1 WNW | 287 4.1 SE | 132 0.00 0 0.00 48.6 56.1 12/4/18
12/4/18 2000 49.0 73 40.8 0.4 NW | 305 4.3 NW | 314 0.00 0 0.00 48.6 56.1 12/4/18
12/4/18 1900 50.8 66 39.8 0.6 WNW | 292 3.6 NNW | 339 0.00 0 0.00 49.3 56.1 12/4/18
12/4/18 1800 53.9 53 37.4 1.8 NE | 50 7.3 NE | 55 0.00 1 0.00 49.4 56.1 12/4/18
12/4/18 1700 54.2 56 38.8 1.8 SE | 135 6.6 NE | 50 0.00 4 0.00 49.4 56.1 12/4/18
12/4/18 1600 54.8 50 36.7 4.3 NE | 36 10.3 NNE | 15 0.00 5 0.00 49.4 56.1 12/4/18
12/4/18 1500 55.3 47 35.3 4.9 NE | 45 9.3 NE | 52 0.00 13 0.00 49.4 56.1 12/4/18
12/4/18 1400 55.6 46 35.1 4.4 ENE | 59 11.1 NE | 45 0.00 11 0.00 49.4 56.1 12/4/18
12/4/18 1300 55.6 47 35.9 3.9 ENE | 76 8.8 E | 97 0.00 13 0.00 49.4 56.1 12/4/18
12/4/18 1200 54.7 49 35.7 4.6 NE | 55 8.6 NNE | 31 0.00 10 0.00 49.4 55.5 12/4/18
12/4/18 1100 53.6 49 34.8 3.4 NE | 49 8.4 NE | 50 0.00 6 0.00 49.4 54.3 12/4/18
12/4/18 1000 52.2 48 33.1 2.3 NE | 55 8.0 NE | 54 0.00 4 0.00 49.4 53.3 12/4/18
12/4/18 0900 51.7 45 30.9 2.6 NE | 39 7.3 NE | 55 0.00 0 0.00 49.4 53.3 12/4/18
12/4/18 0800 51.2 47 31.8 1.6 NE | 38 8.1 NE | 42 0.00 0 0.00 49.4 53.3 12/4/18
12/4/18 0700 52.6 41 29.4 3.4 NE | 43 9.6 NE | 34 0.00 0 0.00 50.5 53.3 12/4/18
12/4/18 0600 52.9 41 29.7 3.5 NE | 43 8.4 NNE | 26 0.00 0 0.00 50.5 53.3 12/4/18
12/4/18 0500 52.4 39 28.1 4.1 NNE | 21 9.5 NE | 38 0.00 0 0.00 50.5 53.2 12/4/18
12/4/18 0400 52.8 37 27.3 5.0 NNE | 23 9.1 NNE | 25 0.00 0 0.00 50.5 53.1 12/4/18
12/4/18 0300 52.2 37 26.8 5.0 NNE | 33 10.0 NNE | 33 0.00 0 0.00 50.5 52.8 12/4/18
12/4/18 0200 52.4 36 26.0 7.1 NNE | 30 12.8 NNE | 14 0.00 0 0.00 50.5 52.8 12/4/18
12/4/18 0100 51.6 40 27.9 3.5 NNE | 25 10.0 NNE | 29 0.00 0 0.00 50.5 52.6 12/4/18
12/4/18 0000 50.8 42 28.6 3.3 NE | 47 13.3 NE | 56 0.00 0 0.00 34.0 57.1 12/3/18
12/3/18 2300 49.3 53 32.3 3.3 NE | 56 10.3 NE | 55 0.00 0 0.00 34.0 57.1 12/3/18
12/3/18 2200 47.4 69 37.7 0.8 NNW | 343 3.6 NW | 324 0.00 0 0.00 34.0 57.1 12/3/18
12/3/18 2100 47.3 69 37.5 0.7 WSW | 250 2.7 SSW | 193 0.00 0 0.00 34.0 57.1 12/3/18
12/3/18 2000 49.1 59 35.3 2.1 NE | 41 5.8 NE | 41 0.00 0 0.00 34.0 57.1 12/3/18
12/3/18 1900 50.2 55 34.6 2.9 E | 94 5.6 SSE | 151 0.00 0 0.00 34.0 57.1 12/3/18
12/3/18 1800 51.8 51 34.4 3.8 ENE | 62 8.4 NE | 37 0.00 2 0.00 34.0 57.1 12/3/18
12/3/18 1700 53.4 47 33.9 4.6 NE | 46 9.8 NE | 53 0.00 8 0.00 34.0 57.1 12/3/18
12/3/18 1600 55.2 46 35.0 4.8 ENE | 60 10.1 NE | 34 0.00 19 0.00 34.0 57.1 12/3/18
12/3/18 1500 56.3 44 34.9 5.0 ENE | 77 8.6 E | 95 0.00 31 0.00 34.0 57.1 12/3/18
12/3/18 1400 55.4 45 34.6 4.8 ENE | 75 10.6 NE | 37 0.00 35 0.00 34.0 56.6 12/3/18
12/3/18 1300 54.9 46 34.7 5.3 ENE | 76 11.1 ENE | 72 0.00 34 0.00 34.0 55.7 12/3/18
12/3/18 1200 51.7 58 37.3 2.2 SSE | 151 8.3 NNE | 20 0.00 38 0.00 34.0 54.7 12/3/18
12/3/18 1100 44.6 85 40.2 0.3 SSW | 192 3.1 SSW | 202 0.00 22 0.00 34.0 47.9 12/3/18
12/3/18 1000 40.6 95 39.2 0.2 SE | 129 2.4 SSE | 151 0.00 9 0.00 34.0 42.3 12/3/18
12/3/18 0900 36.4 96 35.3 0.3 WSW | 243 2.2 SW | 216 0.00 4 0.00 34.0 40.2 12/3/18
12/3/18 0800 35.4 95 34.1 0.3 NW | 324 2.9 NW | 312 0.00 0 0.00 34.0 40.2 12/3/18
12/3/18 0700 36.2 95 34.8 0.0 SW | 221 1.4 SW | 230 0.00 0 0.00 34.0 40.2 12/3/18
12/3/18 0600 35.3 95 34.0 0.8 NW | 322 3.6 NW | 320 0.00 0 0.00 34.0 40.2 12/3/18
12/3/18 0500 34.7 95 33.3 0.2 NW | 315 2.2 NW | 307 0.00 0 0.00 34.1 40.2 12/3/18
12/3/18 0400 35.8 94 34.3 0.8 NW | 305 4.1 NW | 311 0.00 0 0.00 35.2 40.2 12/3/18
12/3/18 0300 36.8 94 35.2 1.3 NW | 321 4.1 WNW | 296 0.00 0 0.00 36.1 40.2 12/3/18
12/3/18 0200 38.3 94 36.8 1.0 NW | 308 3.1 NW | 306 0.00 0 0.00 37.7 40.2 12/3/18
12/3/18 0100 39.3 94 37.6 1.7 NW | 311 4.3 NW | 308 0.00 0 0.00 38.4 40.2 12/3/18
12/3/18 0000 40.3 94 38.7 1.9 NNW | 333 3.9 NNW | 346 0.00 0 0.00 35.3 59.6 12/2/18
12/2/18 2300 40.7 93 38.9 1.5 NNW | 331 3.6 NNW | 346 0.00 0 0.00 35.3 59.6 12/2/18
12/2/18 2200 41.3 93 39.3 1.5 NW | 326 4.4 NNW | 333 0.00 0 0.00 35.3 59.6 12/2/18
12/2/18 2100 42.6 91 40.1 1.3 NW | 325 4.4 NW | 317 0.00 0 0.00 35.3 59.6 12/2/18
12/2/18 2000 43.9 89 40.9 0.9 NW | 310 3.4 NW | 307 0.00 0 0.00 35.3 59.6 12/2/18
12/2/18 1900 46.8 79 40.5 0.9 SW | 230 2.6 SW | 215 0.00 0 0.00 35.3 59.6 12/2/18
12/2/18 1800 53.2 63 40.7 1.1 E | 92 4.6 ENE | 70 0.00 4 0.00 35.3 59.6 12/2/18
12/2/18 1700 56.7 53 39.8 3.5 E | 89 6.9 ESE | 120 0.00 17 0.00 35.3 59.6 12/2/18
12/2/18 1600 58.8 47 38.4 3.8 SE | 125 7.6 ESE | 119 0.00 34 0.00 35.3 59.6 12/2/18
12/2/18 1500 58.9 47 38.6 2.5 SSE | 152 6.9 SE | 137 0.00 39 0.00 35.3 59.5 12/2/18
12/2/18 1400 57.2 53 40.1 1.8 SSE | 158 5.1 ESE | 114 0.00 44 0.00 35.3 58.6 12/2/18
Tip: Bookmark this page for easy future reference